Latest Weather Observations for Sydney - Observatory Hill

IDN60901

Issued at 1:31 pm EST Saturday 4 July 2015 (issued every 10 minutes, with the page automatically refreshed every 10 minutes)

About weather observations | Map of Sydney area stations | Latest observations for Sydney area | Other Formats
Station Details ID: 066062 Name: SYDNEY (OBSERVATORY HILL) Lat: -33.86 Lon: 151.21 Height: 39.0 m
Data from the previous 72 hours. | See also: Recent months at Sydney - Observatory Hill

* Apparent temperature (App Temp) for Sydney - Observatory Hill is calculated using temperature observations collected at Sydney - Observatory Hill and wind observations collected at Fort Denison, as wind observations are not currently provided for Sydney - Observatory Hill.

Date/Time
EST
Tmp

°C
App
Tmp
°C
Dew
Point
°C
Rel
Hum
%
Delta-T

°C
Wind Press
QNH
hPa
Press
MSL
hPa
Rain
since
9 am
mm
Dir
 
Spd
km/h
Gust
km/h
Spd
kts
Gust
kts
04/01:00pm 15.1 10.3 0.5 37 6.2 W 15 - 8 - 1020.3 1020.3 0.0
04/12:30pm 13.1 9.1 0.8 43 5.2 WNW 11 - 6 - 1020.7 1020.7 0.0
04/12:00pm 11.3 7.6 2.1 53 3.9 WNW 11 - 6 - 1021.1 1021.1 0.0
04/11:30am 10.3 6.5 1.7 55 3.6 W 11 - 6 - 1021.6 1021.6 0.0
04/11:00am 9.8 5.3 2.2 59 3.2 WNW 15 - 8 - 1022.1 1022.1 0.0
04/10:30am 8.6 4.1 2.0 63 2.7 W 15 - 8 - 1022.6 1022.6 0.0
04/09:30am 8.1 3.3 4.5 78 1.6 W 19 - 10 - 1022.8 1022.8 0.0
04/08:30am 6.6 2.5 4.4 86 1.0 W 15 - 8 - 1023.0 1023.0 0.0
04/08:00am 6.6 3.0 4.9 89 0.7 WNW 13 - 7 - 1022.9 1022.9 0.0
04/07:30am 6.1 2.2 5.2 94 0.4 W 15 - 8 - 1022.8 1022.8 0.0
04/07:00am 5.9 2.3 4.9 93 0.4 W 13 - 7 - 1022.5 1022.5 0.0
04/06:30am 6.1 2.5 4.9 92 0.5 WNW 13 - 7 - 1022.5 1022.5 0.0
04/05:30am 6.4 2.0 5.0 91 0.6 W 17 - 9 - 1022.3 1022.3 0.0
04/05:00am 6.6 3.0 4.9 89 0.7 WNW 13 - 7 - 1022.1 1022.1 0.0
04/04:30am 6.7 1.8 5.0 89 0.7 W 20 - 11 - 1022.6 1022.6 0.0
04/04:00am 6.9 2.3 5.5 91 0.6 WNW 19 - 10 - 1022.7 1022.7 0.0
04/03:30am 7.0 2.2 5.8 92 0.5 W 20 - 11 - 1023.2 1023.2 0.0
04/03:00am 7.0 2.8 5.6 91 0.6 WNW 17 - 9 - 1023.4 1023.4 0.0
04/02:30am 7.0 2.2 5.6 91 0.6 W 20 - 11 - 1023.8 1023.8 0.0
04/02:00am 7.1 3.3 5.7 91 0.6 WNW 15 - 8 - 1023.8 1023.8 0.0
04/01:30am 7.0 4.7 5.6 91 0.6 NW 7 - 4 - 1023.8 1023.8 0.0
04/01:00am 7.4 4.4 6.0 91 0.6 WNW 11 - 6 - 1024.2 1024.2 0.0
04/12:30am 7.6 3.8 5.7 88 0.9 WNW 15 - 8 - 1024.5 1024.5 0.0
04/12:00am 7.6 2.8 5.4 86 1.0 W 20 - 11 - 1025.0 1025.0 0.0
 
Date/Time
EST
Tmp

°C
App
Tmp
°C
Dew
Point
°C
Rel
Hum
%
Delta-T

°C
Wind Press
QNH
hPa
Press
MSL
hPa
Rain
since
9 am
mm
Dir
 
Spd
km/h
Gust
km/h
Spd
kts
Gust
kts
03/11:30pm 8.3 4.1 5.9 85 1.1 W 17 - 9 - 1025.2 1025.2 0.0
03/11:00pm 8.6 4.2 6.7 88 0.9 W 19 - 10 - 1025.3 1025.3 0.0
03/10:30pm 8.6 5.7 6.6 87 0.9 WNW 11 - 6 - 1025.4 1025.4 0.0
03/10:00pm 9.0 6.1 6.6 85 1.1 WNW 11 - 6 - 1025.4 1025.4 0.0
03/09:30pm 9.3 7.0 7.3 87 0.9 WNW 9 - 5 - 1025.5 1025.5 0.0
03/09:00pm 9.4 7.6 7.3 87 1.0 NW 6 - 3 - 1025.5 1025.5 0.0
03/08:30pm 10.0 8.2 7.8 86 1.1 WNW 7 - 4 - 1025.6 1025.6 0.0
03/08:00pm 10.4 8.5 6.7 78 1.7 WNW 6 - 3 - 1025.7 1025.7 0.0
03/07:30pm 11.0 8.8 5.5 69 2.5 WNW 6 - 3 - 1025.6 1025.6 0.0
03/07:00pm 11.4 9.2 5.3 66 2.8 SSW 6 - 3 - 1025.5 1025.5 0.0
03/06:30pm 11.8 9.4 4.3 60 3.4 SSW 6 - 3 - 1025.5 1025.5 0.0
03/05:30pm 11.8 9.1 3.8 58 3.6 S 7 - 4 - 1025.0 1025.0 0.0
03/05:00pm 12.3 8.9 4.0 57 3.7 SSE 11 - 6 - 1024.9 1024.9 0.0
03/04:30pm 13.0 9.6 3.9 54 4.1 SSE 11 - 6 - 1024.8 1024.8 0.0
03/04:00pm 13.4 10.3 3.5 51 4.4 S 9 - 5 - 1025.0 1025.0 0.0
03/03:30pm 14.6 11.1 3.4 47 5.1 SSE 11 - 6 - 1024.8 1024.8 0.0
03/03:00pm 15.9 11.8 4.3 46 5.4 SSE 15 - 8 - 1024.6 1024.6 0.0
03/02:30pm 15.7 12.0 4.4 47 5.3 S 13 - 7 - 1024.6 1024.6 0.0
03/02:00pm 14.7 9.7 3.8 48 5.0 S 19 - 10 - 1024.7 1024.7 0.0
03/01:30pm 16.1 11.7 4.5 46 5.4 S 17 - 9 - 1025.0 1025.0 0.0
03/01:00pm 15.5 10.0 4.2 47 5.2 S 22 - 12 - 1025.3 1025.3 0.0
03/12:30pm 14.7 9.8 4.1 49 4.9 S 19 - 10 - 1025.6 1025.6 0.0
03/12:00pm 13.5 8.3 3.8 52 4.4 S 20 - 11 - 1025.9 1025.9 0.0
03/11:30am 13.0 9.3 4.2 55 4.0 SW 13 - 7 - 1026.3 1026.3 0.0
03/11:00am 11.6 6.8 2.6 54 3.9 WNW 17 - 9 - 1026.7 1026.7 0.0
03/10:30am 10.5 5.0 1.6 54 3.7 W 20 - 11 - 1026.9 1026.9 0.0
03/10:00am 9.9 3.9 1.0 54 3.6 W 22 - 12 - 1027.0 1027.0 0.0
03/09:30am 8.8 2.6 0.0 54 3.5 W 22 - 12 - 1026.7 1026.7 0.0
03/09:00am 8.1 1.1 -0.4 55 3.3 W 26 - 14 - 1026.5 1026.5 0.0
03/08:30am 7.4 0.0 -0.8 56 3.1 W 28 - 15 - 1026.4 1026.4 0.0
03/08:00am 7.0 -0.8 -0.9 57 3.0 W 30 - 16 - 1026.3 1026.3 0.0
03/07:30am 6.6 -0.5 -1.1 58 2.9 W 26 - 14 - 1026.1 1026.1 0.0
03/07:00am 6.4 -1.0 -1.0 59 2.8 W 28 - 15 - 1025.8 1025.8 0.0
03/06:30am 6.3 -1.2 -1.3 58 2.8 W 28 - 15 - 1025.5 1025.5 0.0
03/06:00am 6.4 -1.5 -1.2 58 2.8 W 30 - 16 - 1025.0 1025.0 0.0
03/05:30am 6.6 -0.1 -1.3 57 3.0 W 24 - 13 - 1024.8 1024.8 0.0
03/05:00am 6.7 -1.7 -1.4 56 3.0 W 33 - 18 - 1024.7 1024.7 0.0
03/04:30am 6.7 -0.8 -1.4 56 3.0 W 28 - 15 - 1024.5 1024.5 0.0
03/04:00am 6.8 -1.4 -1.3 56 3.0 W 32 - 17 - 1024.3 1024.3 0.0
03/03:30am 7.0 -0.4 -0.9 57 3.0 W 28 - 15 - 1023.9 1023.9 0.0
03/03:00am 7.3 1.0 -0.9 56 3.1 W 22 - 12 - 1023.9 1023.9 0.0
03/02:30am 7.5 0.1 -0.7 56 3.2 W 28 - 15 - 1024.0 1024.0 0.0
03/02:00am 7.7 0.3 -0.5 56 3.2 W 28 - 15 - 1024.0 1024.0 0.0
03/01:30am 8.0 1.0 -0.2 56 3.2 W 26 - 14 - 1023.9 1023.9 0.0
03/01:00am 8.3 2.1 -0.2 55 3.3 W 22 - 12 - 1023.9 1023.9 0.0
03/12:30am 8.7 2.2 0.2 55 3.4 W 24 - 13 - 1023.8 1023.8 0.0
03/12:00am 9.1 3.0 0.3 54 3.5 W 22 - 12 - 1024.0 1024.0 0.0
 
Date/Time
EST
Tmp

°C
App
Tmp
°C
Dew
Point
°C
Rel
Hum
%
Delta-T

°C
Wind Press
QNH
hPa
Press
MSL
hPa
Rain
since
9 am
mm
Dir
 
Spd
km/h
Gust
km/h
Spd
kts
Gust
kts
02/11:30pm 9.6 3.8 0.2 52 3.8 WSW 20 - 11 - 1023.9 1023.9 0.0
02/11:00pm 9.8 4.6 0.4 52 3.8 SW 17 - 9 - 1024.0 1024.0 0.0
02/10:30pm 9.9 5.2 0.8 53 3.7 WSW 15 - 8 - 1023.7 1023.7 0.0
02/10:00pm 10.3 5.6 0.6 51 3.9 WSW 15 - 8 - 1023.4 1023.4 0.0
02/09:30pm 10.6 5.1 0.3 49 4.2 WSW 19 - 10 - 1023.1 1023.1 0.0
02/09:00pm 10.7 5.7 1.3 52 3.9 WSW 17 - 9 - 1022.7 1022.7 0.0
02/08:30pm 11.2 6.2 1.5 51 4.1 WSW 17 - 9 - 1022.4 1022.4 0.0
02/08:00pm 11.7 6.3 1.1 48 4.4 WSW 19 - 10 - 1021.7 1021.7 0.0
02/07:30pm 12.0 6.6 1.1 47 4.6 SW 19 - 10 - 1021.5 1021.5 0.0
02/07:00pm 12.3 7.8 1.9 49 4.5 SW 15 - 8 - 1021.1 1021.1 0.0
02/06:30pm 12.7 6.8 2.0 48 4.6 WSW 22 - 12 - 1020.5 1020.5 0.0
02/06:00pm 12.9 4.2 1.9 47 4.7 WSW 37 - 20 - 1019.1 1019.2 0.0
02/05:30pm 13.4 4.0 2.3 47 4.9 WSW 41 - 22 - 1018.3 1018.4 0.0
02/05:00pm 14.0 5.0 2.3 45 5.1 WSW 39 - 21 - 1018.5 1018.6 0.0
02/04:30pm 14.6 7.7 2.5 44 5.4 WSW 28 - 15 - 1017.8 1017.9 0.0
02/04:00pm 14.9 7.3 2.8 44 5.4 WSW 32 - 17 - 1017.3 1017.4 0.0
02/03:30pm 15.7 7.1 2.5 41 5.9 WSW 37 - 20 - 1016.9 1017.0 0.0
02/03:00pm 16.1 8.2 2.5 40 6.1 WSW 33 - 18 - 1016.7 1016.8 0.0
02/02:30pm 16.0 7.8 2.8 41 6.0 W 35 - 19 - 1016.9 1017.0 0.0
02/02:00pm 16.1 8.8 2.2 39 6.2 W 30 - 16 - 1017.0 1017.1 0.0
02/01:30pm 16.0 8.6 3.8 44 5.6 WSW 32 - 17 - 1016.9 1017.0 0.0
02/01:00pm 15.8 8.3 3.3 43 5.7 W 32 - 17 - 1017.4 1017.5 0.0
02/12:30pm 14.7 7.1 2.9 45 5.3 WSW 32 - 17 - 1017.8 1017.9 0.0
02/12:00pm 14.0 6.4 2.6 46 5.0 W 32 - 17 - 1018.0 1018.1 0.0
02/11:30am 13.2 5.9 2.4 48 4.7 WSW 30 - 16 - 1018.5 1018.6 0.0
02/11:00am 12.7 4.1 2.8 51 4.3 W 37 - 20 - 1018.9 1019.0 0.0
02/10:30am 12.1 4.5 2.8 53 4.1 W 32 - 17 - 1019.3 1019.4 0.0
02/10:00am 10.9 4.6 3.7 61 3.2 W 26 - 14 - 1019.6 1019.7 0.0
02/09:30am 9.7 3.7 3.4 65 2.7 W 24 - 13 - 1019.9 1019.9 0.0
02/09:00am 8.4 2.8 3.3 70 2.2 W 22 - 12 - 1020.0 1020.0 0.0
02/08:30am 8.0 3.2 2.5 68 2.3 W 17 - 9 - 1020.2 1020.2 0.0
02/08:00am 7.6 2.2 2.7 71 2.0 W 20 - 11 - 1020.3 1020.3 0.0
02/07:30am 7.2 1.8 1.5 67 2.3 W 19 - 10 - 1020.3 1020.3 0.0
02/07:00am 7.3 2.4 1.8 68 2.2 W 17 - 9 - 1020.0 1020.0 0.0
02/06:30am 7.0 2.0 1.3 67 2.3 W 17 - 9 - 1019.8 1019.8 0.0
02/06:00am 7.0 2.1 1.7 69 2.1 W 17 - 9 - 1020.0 1020.0 0.0
02/05:30am 7.3 2.3 1.6 67 2.3 W 17 - 9 - 1020.3 1020.3 0.0
02/05:00am 7.2 1.7 1.9 69 2.2 W 20 - 11 - 1020.0 1020.0 0.0
02/04:30am 7.5 2.2 1.6 66 2.4 WSW 19 - 10 - 1020.4 1020.4 0.0
02/04:00am 7.4 1.9 1.9 68 2.2 W 20 - 11 - 1020.5 1020.5 0.0
02/03:30am 7.2 1.4 2.5 72 2.0 W 22 - 12 - 1020.6 1020.6 0.0
02/03:00am 7.4 1.3 2.5 71 2.0 W 24 - 13 - 1020.8 1020.8 0.0
02/02:30am 7.4 2.1 2.9 73 1.9 W 20 - 11 - 1020.8 1020.8 0.0
02/02:00am 7.5 2.8 3.2 74 1.8 W 17 - 9 - 1021.0 1021.0 0.0
02/01:30am 7.7 2.6 3.0 72 2.0 W 19 - 10 - 1021.2 1021.2 0.0
02/01:00am 8.0 2.9 3.1 71 2.1 W 19 - 10 - 1021.3 1021.3 0.0
02/12:30am 8.2 2.9 3.1 70 2.2 W 20 - 11 - 1021.7 1021.7 0.0
02/12:00am 8.7 3.6 3.1 68 2.4 W 19 - 10 - 1021.9 1021.9 0.0
 
Date/Time
EST
Tmp

°C
App
Tmp
°C
Dew
Point
°C
Rel
Hum
%
Delta-T

°C
Wind Press
QNH
hPa
Press
MSL
hPa
Rain
since
9 am
mm
Dir
 
Spd
km/h
Gust
km/h
Spd
kts
Gust
kts
01/11:30pm 9.0 3.8 3.6 69 2.3 W 20 - 11 - 1022.7 1022.7 0.0
01/11:00pm 9.6 3.8 4.4 70 2.3 W 24 - 13 - 1023.0 1023.0 0.0
01/10:30pm 10.2 6.0 7.4 83 1.3 W 19 - 10 - 1022.5 1022.5 0.0
01/10:00pm 10.0 6.8 8.3 89 0.8 W 15 - 8 - 1022.5 1022.5 0.0
01/09:30pm 10.3 7.5 8.4 88 0.9 W 13 - 7 - 1022.7 1022.7 0.0
01/09:00pm 10.2 7.7 8.3 88 0.9 W 11 - 6 - 1022.9 1022.9 0.0
01/08:30pm 10.6 7.4 8.4 86 1.1 W 15 - 8 - 1023.4 1023.4 0.0
01/08:00pm 11.1 8.3 8.7 85 1.2 W 13 - 7 - 1023.4 1023.4 0.0
01/07:30pm 11.7 10.2 8.4 80 1.6 NNW 6 - 3 - 1023.1 1023.1 0.0
01/07:00pm 12.6 10.8 7.1 69 2.6 SE 6 - 3 - 1023.1 1023.1 0.0
01/06:30pm 13.1 11.2 6.7 65 3.1 S 6 - 3 - 1023.0 1023.0 0.0
01/06:00pm 13.1 11.0 5.8 61 3.4 S 6 - 3 - 1022.7 1022.7 0.0
01/05:30pm 13.1 10.3 5.3 59 3.6 S 9 - 5 - 1022.5 1022.5 0.0
01/05:00pm 13.7 10.4 4.8 55 4.1 SSE 11 - 6 - 1022.3 1022.3 0.0
01/04:30pm 14.3 10.9 4.0 50 4.7 SSW 11 - 6 - 1022.4 1022.4 0.0
01/04:00pm 15.1 11.7 3.9 47 5.1 WSW 11 - 6 - 1022.5 1022.5 0.0
01/03:30pm 16.6 13.1 3.3 41 6.1 W 11 - 6 - 1022.6 1022.6 0.0
01/03:00pm 17.4 14.1 2.6 37 6.7 NW 9 - 5 - 1022.6 1022.6 0.0
01/02:30pm 16.8 13.1 4.5 44 5.8 NW 13 - 7 - 1022.8 1022.8 0.0
01/02:00pm 15.7 13.1 4.4 47 5.3 NW 7 - 4 - 1023.2 1023.2 0.0

Latest Capital City Observations: Canberra | Sydney | Melbourne | Brisbane | Adelaide | Perth | Hobart | Darwin

Other Formats:

Comma delimited format used in spreadsheet applications
http://www.bom.gov.au/fwo/IDN60901/IDN60901.94768.axf

JavaScript Object Notation format (JSON) in row-major order
http://www.bom.gov.au/fwo/IDN60901/IDN60901.94768.json